Time;durP1;ratioP1;P1;durP2;ratioP2;P2;SDS_P1;SDS_P2;PMS_P1;PMS_P2;Temp;Humidity;BMP_temperature;BMP_pressure;BME280_temperature;BME280_humidity;BME280_pressure;Samples;Min_cycle;Max_cycle;Signal;HPM_P1;HPM_P2
2023/10/20 00:01:11;;;;;;;21.23;4.93;;;13.40;99.90;;;;;;5070256;28;20474;-78
2023/10/20 00:03:37;;;;;;;19.25;4.47;;;13.20;99.90;;;;;;5051802;28;20029;-78
2023/10/20 00:06:04;;;;;;;13.90;4.30;;;13.30;99.90;;;;;;5068956;28;20032;-78
2023/10/20 00:08:31;;;;;;;11.77;3.95;;;13.30;99.90;;;;;;5070560;28;20510;-79
2023/10/20 00:11:07;;;;;;;13.27;4.32;;;13.40;99.90;;;;;;5069890;28;20020;-77
2023/10/20 00:13:33;;;;;;;16.92;5.05;;;13.30;99.90;;;;;;5073515;28;20036;-78
2023/10/20 00:15:59;;;;;;;14.90;4.65;;;13.50;99.90;;;;;;5073180;28;20424;-78
2023/10/20 00:18:25;;;;;;;14.10;4.63;;;13.40;99.90;;;;;;5073388;28;20094;-78
2023/10/20 00:20:51;;;;;;;15.75;4.82;;;13.50;99.90;;;;;;5056329;28;20118;-77
2023/10/20 00:23:16;;;;;;;15.50;4.25;;;13.60;99.90;;;;;;5058684;28;20025;-78
2023/10/20 00:25:43;;;;;;;20.20;4.93;;;13.60;99.90;;;;;;5073672;28;20035;-80
2023/10/20 00:28:09;;;;;;;19.45;4.88;;;13.60;99.90;;;;;;5076196;28;20036;-78
2023/10/20 00:30:35;;;;;;;13.23;4.15;;;13.40;99.90;;;;;;5055553;28;20507;-78
2023/10/20 00:33:01;;;;;;;12.63;3.85;;;13.40;99.90;;;;;;5073558;28;20831;-79
2023/10/20 00:35:27;;;;;;;14.05;3.67;;;13.60;99.90;;;;;;5080200;28;20034;-78
2023/10/20 00:37:53;;;;;;;13.77;3.95;;;13.50;99.90;;;;;;5073973;28;20031;-77
2023/10/20 00:40:22;;;;;;;10.18;3.47;;;13.30;99.90;;;;;;5073765;28;20029;-79
2023/10/20 00:42:49;;;;;;;22.85;4.13;;;13.40;99.90;;;;;;5074083;28;20024;-79
2023/10/20 00:45:15;;;;;;;14.05;3.58;;;13.50;99.90;;;;;;5074666;28;20032;-78
2023/10/20 00:47:43;;;;;;;14.55;4.07;;;13.40;99.90;;;;;;5074854;28;20036;-79
2023/10/20 00:50:13;;;;;;;11.52;3.67;;;13.50;99.90;;;;;;5073953;28;20048;-79
2023/10/20 00:52:43;;;;;;;11.68;3.05;;;13.50;99.90;;;;;;5075901;28;20040;-79
2023/10/20 00:55:11;;;;;;;20.25;3.78;;;13.50;99.90;;;;;;5076668;28;20048;-78
2023/10/20 00:57:38;;;;;;;16.35;3.90;;;13.50;99.90;;;;;;5073763;28;20046;-78
2023/10/20 01:00:08;;;;;;;15.32;3.92;;;13.40;99.90;;;;;;5073222;28;20028;-78
2023/10/20 01:02:36;;;;;;;17.67;3.65;;;13.40;99.90;;;;;;5077106;28;20055;-77
2023/10/20 01:05:05;;;;;;;18.65;3.55;;;13.40;99.90;;;;;;5074406;28;20537;-77
2023/10/20 01:07:32;;;;;;;11.25;3.20;;;13.40;99.90;;;;;;5075398;28;20128;-77
2023/10/20 01:10:04;;;;;;;10.85;2.85;;;13.50;99.90;;;;;;5073442;28;20031;-76
2023/10/20 01:12:31;;;;;;;13.18;3.00;;;13.50;99.90;;;;;;5073510;28;20025;-77
2023/10/20 01:14:58;;;;;;;11.27;2.78;;;13.40;99.90;;;;;;5076235;28;20028;-77
2023/10/20 01:17:28;;;;;;;16.10;3.20;;;13.50;99.90;;;;;;5077073;28;20056;-77
2023/10/20 01:19:55;;;;;;;24.23;4.13;;;13.50;99.90;;;;;;5073801;28;20115;-77
2023/10/20 01:22:22;;;;;;;20.85;3.50;;;13.40;99.90;;;;;;5059338;28;20043;-78
2023/10/20 01:24:48;;;;;;;20.63;3.53;;;13.60;99.90;;;;;;5078766;28;20035;-77
2023/10/20 01:27:13;;;;;;;22.30;3.00;;;13.50;99.90;;;;;;5079058;28;20104;-78
2023/10/20 01:29:39;;;;;;;14.77;3.10;;;13.70;99.90;;;;;;5077206;28;20084;-77
2023/10/20 01:32:05;;;;;;;15.15;2.92;;;13.50;99.90;;;;;;5072990;28;20380;-77
2023/10/20 01:34:31;;;;;;;12.77;3.30;;;13.50;99.90;;;;;;5058039;28;20028;-77
2023/10/20 01:36:57;;;;;;;15.13;3.40;;;13.60;99.90;;;;;;5075874;28;20451;-77
2023/10/20 01:39:23;;;;;;;11.95;3.33;;;13.70;99.90;;;;;;5072980;28;20136;-76
2023/10/20 01:41:48;;;;;;;25.05;3.65;;;13.50;99.90;;;;;;5074021;28;20032;-77
2023/10/20 01:44:14;;;;;;;15.07;3.40;;;13.60;99.90;;;;;;5072228;28;20038;-76
2023/10/20 01:46:48;;;;;;;16.98;3.55;;;13.60;99.90;;;;;;5074670;28;20032;-76
2023/10/20 01:49:14;;;;;;;11.45;3.33;;;13.70;99.90;;;;;;5073373;28;20124;-77
2023/10/20 01:51:40;;;;;;;20.17;3.72;;;13.60;99.90;;;;;;5075058;28;20029;-78
2023/10/20 01:54:06;;;;;;;16.65;3.33;;;13.60;99.90;;;;;;5055620;28;20020;-77
2023/10/20 01:56:32;;;;;;;10.20;3.20;;;13.60;99.90;;;;;;5073567;28;20091;-78
2023/10/20 01:58:58;;;;;;;14.90;3.10;;;13.50;99.90;;;;;;5071722;28;20130;-78
2023/10/20 02:01:23;;;;;;;13.25;3.25;;;13.50;99.90;;;;;;5077359;28;20070;-77
2023/10/20 02:03:49;;;;;;;15.10;3.42;;;13.40;99.90;;;;;;5075462;28;20422;-77
2023/10/20 02:06:16;;;;;;;10.70;3.42;;;13.50;99.90;;;;;;5054231;28;20376;-78
2023/10/20 02:08:42;;;;;;;19.70;3.83;;;13.60;99.90;;;;;;5072447;28;20036;-78
2023/10/20 02:11:08;;;;;;;15.48;3.83;;;13.50;99.90;;;;;;5071540;28;20093;-76
2023/10/20 02:13:38;;;;;;;8.73;2.85;;;13.50;99.90;;;;;;5057194;28;20471;-78
2023/10/20 02:16:07;;;;;;;11.05;3.00;;;13.40;99.90;;;;;;5071950;28;20029;-77
2023/10/20 02:18:32;;;;;;;11.90;3.20;;;13.50;99.90;;;;;;5071632;28;20043;-77
2023/10/20 02:21:03;;;;;;;7.43;2.72;;;13.50;99.90;;;;;;5071036;28;20024;-77
2023/10/20 02:23:29;;;;;;;15.38;3.60;;;13.40;99.90;;;;;;5071975;28;20107;-77
2023/10/20 02:25:59;;;;;;;18.20;4.30;;;13.30;99.90;;;;;;5070624;28;20076;-76
2023/10/20 02:28:26;;;;;;;7.78;2.92;;;13.40;99.90;;;;;;5071126;28;20020;-77
2023/10/20 02:30:56;;;;;;;9.25;2.92;;;13.30;99.90;;;;;;5071671;28;20036;-77
2023/10/20 02:33:22;;;;;;;12.15;3.60;;;13.20;99.90;;;;;;5071289;28;20032;-77
2023/10/20 02:35:48;;;;;;;7.15;2.90;;;13.20;99.90;;;;;;5070005;28;20029;-78
2023/10/20 02:38:14;;;;;;;15.77;4.05;;;13.20;99.90;;;;;;5072628;28;20031;-77
2023/10/20 02:40:48;;;;;;;13.18;3.75;;;13.10;99.90;;;;;;5072366;28;20462;-77
2023/10/20 02:43:13;;;;;;;11.57;3.20;;;13.20;99.90;;;;;;5071857;28;20025;-78
2023/10/20 02:45:47;;;;;;;9.70;3.55;;;13.20;99.90;;;;;;5072598;28;20387;-77
2023/10/20 02:48:13;;;;;;;19.20;4.28;;;13.10;99.90;;;;;;5071894;28;20067;-78
2023/10/20 02:50:39;;;;;;;9.73;3.53;;;13.10;99.90;;;;;;5071767;28;20032;-77
2023/10/20 02:53:05;;;;;;;14.35;3.88;;;12.90;99.90;;;;;;5075118;28;20017;-77
2023/10/20 02:55:31;;;;;;;9.38;3.03;;;12.90;99.90;;;;;;5055810;28;20403;-76
2023/10/20 02:57:57;;;;;;;13.00;3.78;;;13.00;99.90;;;;;;5070467;28;20063;-76
2023/10/20 03:00:23;;;;;;;6.47;3.60;;;12.80;99.90;;;;;;5073617;28;20032;-77
2023/10/20 03:02:48;;;;;;;9.68;3.85;;;12.80;99.90;;;;;;5056705;28;20539;-78
2023/10/20 03:05:15;;;;;;;28.45;5.50;;;12.80;99.90;;;;;;5070930;28;20024;-77
2023/10/20 03:07:41;;;;;;;18.73;5.28;;;12.80;99.90;;;;;;5071025;28;20135;-77
2023/10/20 03:10:08;;;;;;;21.75;5.22;;;12.90;99.90;;;;;;5072326;28;20025;-77
2023/10/20 03:12:34;;;;;;;10.40;3.88;;;12.70;99.90;;;;;;5071820;28;20025;-77
2023/10/20 03:14:59;;;;;;;14.15;4.43;;;12.70;99.90;;;;;;5073039;28;20100;-77
2023/10/20 03:17:26;;;;;;;16.15;4.22;;;12.70;99.90;;;;;;5071874;28;20439;-77
2023/10/20 03:19:52;;;;;;;12.60;3.70;;;12.70;99.90;;;;;;5071685;28;20036;-76
2023/10/20 03:22:18;;;;;;;11.68;4.13;;;12.70;99.90;;;;;;5073896;28;20430;-77
2023/10/20 03:24:44;;;;;;;19.48;4.57;;;12.50;99.90;;;;;;5072086;28;20028;-76
2023/10/20 03:27:09;;;;;;;14.15;4.00;;;12.60;99.90;;;;;;5070955;28;20059;-76
2023/10/20 03:29:36;;;;;;;13.80;4.13;;;12.50;99.90;;;;;;5073594;28;20030;-77
2023/10/20 03:32:03;;;;;;;10.68;4.00;;;12.50;99.90;;;;;;5070595;28;20106;-76
2023/10/20 03:34:31;;;;;;;7.80;3.55;;;12.70;99.90;;;;;;5070410;28;20471;-77
2023/10/20 03:36:58;;;;;;;13.63;3.53;;;12.60;99.90;;;;;;5069994;28;20429;-77
2023/10/20 03:39:24;;;;;;;15.00;3.88;;;12.50;99.90;;;;;;5070562;28;20021;-76
2023/10/20 03:41:50;;;;;;;15.43;4.22;;;12.60;99.90;;;;;;5070338;28;20495;-77
2023/10/20 03:44:16;;;;;;;10.88;4.30;;;12.50;99.90;;;;;;5052050;28;20039;-76
2023/10/20 03:46:48;;;;;;;14.00;3.90;;;12.40;99.90;;;;;;5071183;28;20123;-77
2023/10/20 03:49:15;;;;;;;15.60;5.50;;;12.50;99.90;;;;;;5073816;28;20041;-77
2023/10/20 03:51:48;;;;;;;14.38;4.85;;;12.50;99.90;;;;;;5074464;28;20108;-77
2023/10/20 03:54:15;;;;;;;16.92;5.07;;;12.50;99.90;;;;;;5074088;28;20552;-76
2023/10/20 03:56:42;;;;;;;26.80;6.07;;;12.50;99.90;;;;;;5074424;28;20043;-76
2023/10/20 03:59:11;;;;;;;15.75;5.57;;;12.40;99.90;;;;;;5055929;28;20467;-77
2023/10/20 04:01:38;;;;;;;11.52;4.95;;;12.30;99.90;;;;;;5074458;28;20033;-76
2023/10/20 04:04:08;;;;;;;16.45;5.72;;;12.40;99.90;;;;;;5076548;28;20025;-78
2023/10/20 04:06:35;;;;;;;18.67;5.80;;;12.20;99.90;;;;;;5077150;28;20041;-77
2023/10/20 04:09:02;;;;;;;12.75;5.80;;;12.20;99.90;;;;;;5075034;28;20093;-76
2023/10/20 04:11:29;;;;;;;16.85;6.60;;;12.20;99.90;;;;;;5074808;28;20078;-76
2023/10/20 04:13:55;;;;;;;16.50;6.43;;;12.30;99.90;;;;;;5075843;28;20033;-76
2023/10/20 04:16:23;;;;;;;25.02;7.00;;;12.30;99.90;;;;;;5074289;28;20031;-76
2023/10/20 04:18:48;;;;;;;17.40;6.13;;;12.20;99.90;;;;;;5073967;28;20032;-75
2023/10/20 04:21:14;;;;;;;16.00;6.40;;;12.30;99.90;;;;;;5073141;28;20029;-76
2023/10/20 04:23:43;;;;;;;17.42;6.05;;;12.20;99.90;;;;;;5076060;28;20080;-76
2023/10/20 04:26:20;;;;;;;40.13;8.13;;;12.40;99.90;;;;;;5074019;28;20360;-76
2023/10/20 04:28:48;;;;;;;20.33;7.18;;;12.40;99.90;;;;;;5073769;28;20044;-76
2023/10/20 04:45:18;;;;;;;25.75;7.97;;;12.50;99.90;;;;;;5074131;28;20035;-78
2023/10/20 04:51:08;;;;;;;15.05;5.70;;;12.90;99.90;;;;;;5021911;28;20088;-77
2023/10/20 04:53:52;;;;;;;18.25;6.30;;;12.70;99.90;;;;;;5074569;28;20177;-76
2023/10/20 04:56:32;;;;;;;17.27;6.18;;;12.80;99.90;;;;;;5073110;28;20080;-77
2023/10/20 04:59:04;;;;;;;17.23;5.45;;;13.00;99.90;;;;;;5073323;28;20408;-78
2023/10/20 05:01:41;;;;;;;19.63;7.43;;;13.00;99.90;;;;;;5076120;28;20052;-77
2023/10/20 05:04:18;;;;;;;34.60;8.82;;;13.10;99.90;;;;;;5074618;28;20036;-78
2023/10/20 05:06:44;;;;;;;19.55;8.43;;;12.90;99.90;;;;;;5072565;28;20302;-76
2023/10/20 05:09:14;;;;;;;14.73;7.18;;;12.90;99.90;;;;;;5072817;28;20024;-77
2023/10/20 05:11:43;;;;;;;17.63;7.68;;;12.80;99.90;;;;;;5073024;28;20021;-76
2023/10/20 05:14:10;;;;;;;18.05;7.20;;;12.70;99.90;;;;;;5072245;28;20025;-76
2023/10/20 05:16:36;;;;;;;26.15;8.88;;;12.70;99.90;;;;;;5072776;28;20056;-77
2023/10/20 05:19:05;;;;;;;18.67;8.02;;;12.50;99.90;;;;;;5072302;28;20060;-78
2023/10/20 05:21:33;;;;;;;22.83;8.65;;;12.50;99.90;;;;;;5072795;28;20032;-78
2023/10/20 05:24:03;;;;;;;18.55;7.50;;;12.50;99.90;;;;;;5072259;28;20095;-77
2023/10/20 05:26:30;;;;;;;22.25;7.82;;;12.60;99.90;;;;;;5072570;28;20356;-76
2023/10/20 05:28:56;;;;;;;24.13;9.27;;;12.60;99.90;;;;;;5072736;28;20111;-77
2023/10/20 05:31:25;;;;;;;15.68;7.47;;;12.60;99.90;;;;;;5072690;28;20099;-76
2023/10/20 05:33:52;;;;;;;14.82;6.88;;;12.60;99.90;;;;;;5075011;28;20369;-76
2023/10/20 05:36:18;;;;;;;16.58;6.93;;;12.70;99.90;;;;;;5072985;28;20020;-76
2023/10/20 05:38:44;;;;;;;16.02;7.50;;;12.70;99.90;;;;;;5074022;28;20052;-77
2023/10/20 05:41:11;;;;;;;16.83;6.80;;;12.70;99.90;;;;;;5071684;28;20037;-77
2023/10/20 05:43:38;;;;;;;13.70;6.60;;;12.70;99.90;;;;;;5072330;28;20025;-76
2023/10/20 05:46:04;;;;;;;13.82;5.95;;;12.90;99.90;;;;;;5071134;28;20589;-77
2023/10/20 05:48:30;;;;;;;26.35;8.65;;;12.80;99.90;;;;;;5072032;28;20131;-77
2023/10/20 05:50:57;;;;;;;18.30;7.13;;;12.80;99.90;;;;;;5071981;28;20052;-78
2023/10/20 05:53:24;;;;;;;20.88;8.32;;;12.90;99.90;;;;;;5071712;28;20032;-76
2023/10/20 05:55:50;;;;;;;20.85;7.70;;;12.90;99.90;;;;;;5071939;28;20048;-77
2023/10/20 05:58:16;;;;;;;25.75;8.50;;;13.00;99.90;;;;;;5071804;28;20036;-78
2023/10/20 06:00:42;;;;;;;17.05;7.32;;;12.90;99.90;;;;;;5071769;28;20510;-76
2023/10/20 06:03:09;;;;;;;29.13;9.20;;;12.90;99.90;;;;;;5071089;28;20463;-76
2023/10/20 06:05:35;;;;;;;27.92;9.10;;;13.10;99.90;;;;;;5071797;28;20028;-77
2023/10/20 06:08:01;;;;;;;30.35;8.60;;;13.20;99.90;;;;;;5071068;28;20170;-78
2023/10/20 06:10:27;;;;;;;31.75;8.75;;;13.00;99.90;;;;;;5071059;28;20365;-77
2023/10/20 06:12:54;;;;;;;24.42;8.05;;;13.20;99.90;;;;;;5071746;28;20082;-77
2023/10/20 06:15:20;;;;;;;20.95;9.45;;;13.20;99.90;;;;;;5071254;28;20103;-77
2023/10/20 06:17:49;;;;;;;24.20;9.65;;;13.00;99.90;;;;;;5071367;28;20035;-76
2023/10/20 06:20:15;;;;;;;22.73;8.52;;;13.20;99.90;;;;;;5070847;28;20445;-77
2023/10/20 06:22:42;;;;;;;23.98;8.77;;;13.20;99.90;;;;;;5071228;28;20029;-75
2023/10/20 06:25:14;;;;;;;25.95;9.35;;;13.20;99.90;;;;;;5070766;28;20024;-76
2023/10/20 06:27:44;;;;;;;18.75;8.18;;;13.30;99.90;;;;;;5071746;28;20036;-77
2023/10/20 06:30:23;;;;;;;31.52;10.32;;;13.20;99.90;;;;;;5071372;28;20032;-77
2023/10/20 06:35:35;;;;;;;17.55;8.73;;;13.30;99.90;;;;;;5071635;28;20387;-78
2023/10/20 06:40:35;;;;;;;27.48;9.82;;;13.30;99.90;;;;;;5070872;28;20052;-77
2023/10/20 06:43:01;;;;;;;30.48;10.23;;;13.30;99.90;;;;;;5070798;28;20444;-79
2023/10/20 06:45:26;;;;;;;24.35;8.65;;;13.40;99.90;;;;;;5070731;28;20078;-77
2023/10/20 06:47:52;;;;;;;30.98;10.25;;;13.30;99.90;;;;;;5071193;28;20040;-77
2023/10/20 06:50:18;;;;;;;26.48;9.82;;;13.40;99.90;;;;;;5070978;28;20432;-76
2023/10/20 06:52:43;;;;;;;25.83;9.32;;;13.30;99.90;;;;;;5070969;28;20025;-76
2023/10/20 06:55:09;;;;;;;19.23;8.07;;;13.30;99.90;;;;;;5051779;28;20119;-76
2023/10/20 06:57:35;;;;;;;17.27;7.72;;;13.50;99.90;;;;;;5070717;28;20036;-75
2023/10/20 07:00:03;;;;;;;20.13;8.30;;;13.50;99.90;;;;;;5070492;28;20025;-76
2023/10/20 07:02:29;;;;;;;20.00;8.75;;;13.50;99.90;;;;;;5070370;28;20016;-76
2023/10/20 07:04:56;;;;;;;21.92;9.07;;;13.50;99.90;;;;;;5070705;28;20025;-78
2023/10/20 07:07:21;;;;;;;22.25;8.73;;;13.30;99.90;;;;;;5070016;28;20147;-77
2023/10/20 07:09:47;;;;;;;22.25;8.23;;;13.50;99.90;;;;;;5070687;28;20112;-77
2023/10/20 07:12:15;;;;;;;21.23;7.65;;;13.30;99.90;;;;;;5069530;28;20028;-78
2023/10/20 07:14:43;;;;;;;19.08;8.02;;;13.50;99.90;;;;;;5052473;28;20040;-78
2023/10/20 07:17:09;;;;;;;26.42;8.65;;;13.40;99.90;;;;;;5051838;28;20105;-77
2023/10/20 07:19:35;;;;;;;23.88;9.07;;;13.50;99.90;;;;;;5070593;28;20081;-76
2023/10/20 07:22:05;;;;;;;29.10;8.68;;;13.50;99.90;;;;;;5070273;28;20107;-78
2023/10/20 07:24:31;;;;;;;16.13;8.23;;;13.40;99.90;;;;;;5052070;28;20032;-78
2023/10/20 07:26:57;;;;;;;17.88;7.93;;;13.50;99.90;;;;;;5070108;28;20039;-77
2023/10/20 07:29:22;;;;;;;24.50;8.88;;;13.50;99.90;;;;;;5070353;28;20150;-78
2023/10/20 07:31:48;;;;;;;24.83;8.95;;;13.70;99.90;;;;;;5070434;28;20103;-77
2023/10/20 07:34:15;;;;;;;25.75;9.68;;;13.70;99.90;;;;;;5069357;28;20032;-77
2023/10/20 07:36:41;;;;;;;21.95;8.98;;;13.60;99.90;;;;;;5069974;28;20581;-77
2023/10/20 07:39:15;;;;;;;26.73;10.00;;;13.60;99.90;;;;;;5069519;28;20459;-78
2023/10/20 07:41:40;;;;;;;24.95;8.98;;;13.60;99.90;;;;;;5070292;28;20108;-77
2023/10/20 07:44:08;;;;;;;34.35;11.10;;;13.70;99.90;;;;;;5069585;28;20449;-78
2023/10/20 07:46:35;;;;;;;21.13;9.70;;;13.70;99.90;;;;;;5069717;28;20082;-76
2023/10/20 07:49:01;;;;;;;25.80;9.45;;;13.70;99.90;;;;;;5069840;28;20027;-76
2023/10/20 07:51:28;;;;;;;24.00;9.38;;;13.90;99.90;;;;;;5069124;28;20060;-76
2023/10/20 07:53:54;;;;;;;17.63;9.20;;;13.90;99.90;;;;;;5051902;28;20032;-76
2023/10/20 07:56:19;;;;;;;22.13;8.57;;;13.90;99.90;;;;;;5068970;28;20052;-76
2023/10/20 07:58:45;;;;;;;21.20;9.07;;;13.90;99.90;;;;;;5069890;28;20028;-77
2023/10/20 08:01:11;;;;;;;20.67;9.30;;;13.80;99.90;;;;;;5068965;28;20120;-78
2023/10/20 08:03:36;;;;;;;26.33;10.98;;;13.90;99.90;;;;;;5069957;28;20360;-77
2023/10/20 08:06:03;;;;;;;24.85;9.57;;;13.80;99.90;;;;;;5069324;28;20451;-77
2023/10/20 08:08:29;;;;;;;21.75;8.40;;;13.90;99.90;;;;;;5069255;28;20099;-75
2023/10/20 08:10:56;;;;;;;32.03;11.73;;;13.80;99.90;;;;;;5069431;28;20115;-76
2023/10/20 08:13:21;;;;;;;33.83;12.82;;;13.90;99.90;;;;;;5069225;28;20100;-76
2023/10/20 08:15:47;;;;;;;29.83;11.65;;;14.00;99.90;;;;;;5069311;28;20035;-77
2023/10/20 08:18:13;;;;;;;23.80;12.48;;;14.20;99.90;;;;;;5069259;28;20073;-77
2023/10/20 08:20:39;;;;;;;33.50;12.75;;;14.00;99.90;;;;;;5069511;28;20141;-76
2023/10/20 08:23:05;;;;;;;36.58;12.43;;;14.20;99.90;;;;;;5069611;28;20036;-76
2023/10/20 08:25:31;;;;;;;31.48;13.00;;;14.10;99.90;;;;;;5069003;28;20048;-77
2023/10/20 08:27:57;;;;;;;26.55;12.07;;;14.10;99.90;;;;;;5069534;28;20039;-76
2023/10/20 08:30:23;;;;;;;27.85;10.57;;;14.30;99.90;;;;;;5069414;28;20020;-76
2023/10/20 08:32:49;;;;;;;25.30;10.80;;;14.20;99.90;;;;;;5070495;28;20020;-77
2023/10/20 08:35:15;;;;;;;25.13;10.68;;;14.10;99.90;;;;;;5072962;28;20031;-77
2023/10/20 08:37:41;;;;;;;17.92;8.15;;;14.30;99.90;;;;;;5073632;28;20386;-78
2023/10/20 08:40:10;;;;;;;24.55;8.30;;;14.20;99.90;;;;;;5055114;28;20074;-77
2023/10/20 08:42:40;;;;;;;16.17;7.00;;;14.10;99.90;;;;;;5055149;28;20024;-78
2023/10/20 08:45:14;;;;;;;17.02;6.65;;;14.30;99.90;;;;;;5072814;28;20332;-79
2023/10/20 08:47:44;;;;;;;20.85;6.45;;;14.10;99.90;;;;;;5073049;28;20102;-78
2023/10/20 08:50:10;;;;;;;14.35;5.85;;;14.20;99.90;;;;;;5073044;28;20048;-77
2023/10/20 08:52:36;;;;;;;17.15;6.15;;;14.10;99.90;;;;;;5073022;28;20028;-77
2023/10/20 08:55:04;;;;;;;9.73;5.30;;;14.20;99.90;;;;;;5072726;28;20052;-77
2023/10/20 08:57:30;;;;;;;9.48;5.32;;;14.10;99.90;;;;;;5072414;28;20370;-76
2023/10/20 08:59:56;;;;;;;10.05;5.50;;;14.20;99.90;;;;;;5072844;28;20115;-78
2023/10/20 09:02:21;;;;;;;15.65;5.72;;;14.30;99.90;;;;;;5072318;28;20029;-78
2023/10/20 09:04:53;;;;;;;21.38;5.68;;;14.30;99.90;;;;;;5054980;28;20112;-79
2023/10/20 09:07:21;;;;;;;15.57;5.00;;;14.20;99.90;;;;;;5072012;28;20056;-78
2023/10/20 09:09:47;;;;;;;16.60;5.30;;;14.20;99.90;;;;;;5073129;28;20029;-78
2023/10/20 09:12:13;;;;;;;18.27;4.93;;;14.20;99.90;;;;;;5072038;28;20033;-78
2023/10/20 09:14:40;;;;;;;16.35;4.95;;;14.10;99.90;;;;;;5073009;28;20037;-78
2023/10/20 09:17:08;;;;;;;12.13;4.72;;;14.30;99.90;;;;;;5072406;28;20064;-79
2023/10/20 09:19:35;;;;;;;17.77;4.50;;;14.00;99.90;;;;;;5071676;28;20024;-78
2023/10/20 09:22:01;;;;;;;12.25;3.78;;;14.20;99.90;;;;;;5072357;28;20051;-80
2023/10/20 09:24:31;;;;;;;14.52;4.20;;;14.10;99.90;;;;;;5072141;28;20439;-79
2023/10/20 09:26:57;;;;;;;15.25;4.30;;;14.00;99.90;;;;;;5072559;28;20032;-78
2023/10/20 09:29:24;;;;;;;8.13;3.72;;;14.00;99.90;;;;;;5071638;28;20031;-78
2023/10/20 09:31:50;;;;;;;13.32;4.35;;;14.00;99.90;;;;;;5072577;28;20020;-78
2023/10/20 09:34:16;;;;;;;10.75;3.70;;;14.00;99.90;;;;;;5072142;28;20025;-79
2023/10/20 09:36:46;;;;;;;16.60;4.38;;;14.10;99.90;;;;;;5072635;28;20056;-77
2023/10/20 09:39:27;;;;;;;10.88;4.10;;;14.10;99.90;;;;;;5072160;28;20846;-79
2023/10/20 09:41:55;;;;;;;10.50;4.10;;;14.00;99.90;;;;;;5071924;28;20048;-78
2023/10/20 09:44:28;;;;;;;7.65;3.55;;;13.90;99.90;;;;;;5067342;28;20455;-78
2023/10/20 09:46:56;;;;;;;5.25;3.55;;;14.10;99.90;;;;;;5071593;28;20123;-79
2023/10/20 09:49:27;;;;;;;9.10;3.55;;;14.10;99.90;;;;;;5070901;28;20032;-79
2023/10/20 09:51:56;;;;;;;14.02;3.20;;;13.90;99.90;;;;;;5056595;28;20033;-78
2023/10/20 09:54:29;;;;;;;9.88;3.20;;;14.00;99.90;;;;;;5050695;28;20028;-79
2023/10/20 09:56:55;;;;;;;;;;;14.00;99.90;;;;;;5059905;28;20114;-79
2023/10/20 09:59:27;;;;;;;7.85;2.95;;;14.10;99.90;;;;;;5071011;28;19905;-79
2023/10/20 10:01:53;;;;;;;10.88;2.72;;;14.20;99.90;;;;;;5071102;28;20108;-81
2023/10/20 10:04:29;;;;;;;9.50;2.70;;;14.00;99.90;;;;;;5049876;28;20026;-80
2023/10/20 10:06:55;;;;;;;6.72;2.00;;;14.00;99.90;;;;;;5071606;28;20075;-78
2023/10/20 10:09:22;;;;;;;7.43;2.78;;;14.00;99.90;;;;;;5068515;28;20107;-81
2023/10/20 10:11:49;;;;;;;8.90;2.60;;;14.10;99.90;;;;;;5037869;28;20391;-85
2023/10/20 10:14:22;;;;;;;8.32;2.33;;;14.00;99.90;;;;;;5072520;28;20471;-88
2023/10/20 10:16:53;;;;;;;7.25;2.28;;;14.00;99.90;;;;;;5072150;28;20040;-85
2023/10/20 10:19:21;;;;;;;12.65;2.72;;;14.10;99.90;;;;;;5071920;28;20145;-82
2023/10/20 10:21:56;;;;;;;8.30;2.30;;;14.00;99.90;;;;;;5053265;28;20021;-80
2023/10/20 10:24:23;;;;;;;11.32;3.45;;;14.10;99.90;;;;;;5036510;28;20038;-80
2023/10/20 10:27:06;;;;;;;8.18;2.72;;;14.00;99.90;;;;;;5070601;28;20052;-80
2023/10/20 10:29:49;;;;;;;9.43;2.50;;;14.00;99.90;;;;;;5068107;28;20086;-80
2023/10/20 10:32:19;;;;;;;8.13;1.90;;;14.00;99.90;;;;;;5070803;28;20035;-80
2023/10/20 10:34:46;;;;;;;7.05;1.48;;;14.20;99.90;;;;;;5051407;28;20216;-81
2023/10/20 10:37:12;;;;;;;9.75;2.05;;;14.00;99.90;;;;;;5070605;28;20032;-80
2023/10/20 10:39:38;;;;;;;11.68;2.10;;;14.10;99.90;;;;;;5070625;28;20021;-81
2023/10/20 10:42:16;;;;;;;12.30;2.13;;;13.80;99.90;;;;;;5053419;28;20115;-88
2023/10/20 10:44:44;;;;;;;12.30;2.30;;;13.90;99.90;;;;;;5059482;28;20116;-87
2023/10/20 10:47:19;;;;;;;11.30;2.20;;;13.70;99.90;;;;;;5054323;28;20349;-84
2023/10/20 10:49:49;;;;;;;12.68;2.08;;;13.80;99.90;;;;;;5053059;28;20116;-84
2023/10/20 10:52:16;;;;;;;13.60;2.15;;;13.70;99.90;;;;;;5052478;28;20115;-81
2023/10/20 10:54:43;;;;;;;13.63;1.90;;;13.60;99.90;;;;;;5070150;28;20044;-77
2023/10/20 10:57:09;;;;;;;12.63;2.60;;;13.50;99.90;;;;;;5070057;28;20028;-80
2023/10/20 10:59:37;;;;;;;16.50;2.20;;;13.50;99.90;;;;;;5070226;28;20061;-80
2023/10/20 11:02:05;;;;;;;17.95;2.75;;;13.40;99.90;;;;;;5070493;28;20028;-81
2023/10/20 11:04:30;;;;;;;11.05;1.95;;;13.40;99.90;;;;;;5070370;28;20087;-87
2023/10/20 11:06:56;;;;;;;18.70;2.60;;;13.30;99.90;;;;;;5054578;28;20182;-89
2023/10/20 11:09:27;;;;;;;14.02;2.60;;;13.40;99.90;;;;;;5055143;28;20476;-89
2023/10/20 11:11:53;;;;;;;15.40;2.47;;;13.30;99.90;;;;;;5072334;28;20058;-84
2023/10/20 11:14:21;;;;;;;13.73;2.15;;;13.20;99.90;;;;;;5070261;28;20482;-81
2023/10/20 11:16:47;;;;;;;13.70;2.00;;;13.20;99.90;;;;;;5070590;28;20386;-80
2023/10/20 11:19:14;;;;;;;13.18;1.95;;;13.20;99.90;;;;;;5070679;28;20021;-80
2023/10/20 11:21:53;;;;;;;9.52;2.20;;;13.20;99.90;;;;;;5070294;28;20023;-81
2023/10/20 11:24:34;;;;;;;9.50;1.65;;;13.00;99.90;;;;;;5070172;28;20425;-83
2023/10/20 11:27:02;;;;;;;16.98;2.45;;;13.00;99.90;;;;;;5070736;28;20074;-85
2023/10/20 11:29:32;;;;;;;16.45;3.22;;;13.10;99.90;;;;;;5071760;28;20095;-88
2023/10/20 11:32:07;;;;;;;21.55;7.07;;;13.00;99.90;;;;;;5054286;28;20463;-88
2023/10/20 11:34:36;;;;;;;8.90;2.50;;;13.10;99.90;;;;;;5077185;28;20024;-88
2023/10/20 11:37:04;;;;;;;15.95;2.03;;;13.00;99.90;;;;;;5064569;28;20082;-86
2023/10/20 11:39:36;;;;;;;19.95;3.80;;;12.90;99.90;;;;;;5070037;28;20069;-80
2023/10/20 11:42:03;;;;;;;21.65;5.15;;;13.00;99.90;;;;;;5070060;28;20134;-79
2023/10/20 11:44:29;;;;;;;12.48;2.20;;;13.10;99.90;;;;;;5069482;28;20428;-81
2023/10/20 11:46:55;;;;;;;18.77;2.85;;;12.90;99.90;;;;;;5069840;28;20029;-80
2023/10/20 11:49:22;;;;;;;18.48;2.95;;;12.90;99.90;;;;;;5070065;28;20036;-79
2023/10/20 11:51:47;;;;;;;16.70;2.45;;;12.80;99.90;;;;;;5070366;28;20024;-79
2023/10/20 11:54:14;;;;;;;22.67;2.90;;;13.00;99.90;;;;;;5070446;28;20425;-80
2023/10/20 11:56:40;;;;;;;19.40;2.60;;;12.90;99.90;;;;;;5070066;28;20067;-79
2023/10/20 11:59:07;;;;;;;18.75;1.95;;;12.90;99.90;;;;;;5052186;28;20035;-80
2023/10/20 12:01:33;;;;;;;14.32;2.97;;;12.80;99.90;;;;;;5069735;28;20033;-81
2023/10/20 12:04:06;;;;;;;16.48;2.17;;;12.80;99.90;;;;;;5070108;28;20028;-81
2023/10/20 12:06:32;;;;;;;21.17;2.65;;;12.80;99.90;;;;;;5069406;28;20032;-82
2023/10/20 12:08:57;;;;;;;20.83;2.30;;;12.60;99.90;;;;;;5073517;28;20028;-86
2023/10/20 12:11:23;;;;;;;20.23;2.28;;;12.60;99.90;;;;;;5056075;28;20020;-90
2023/10/20 12:13:49;;;;;;;26.48;3.13;;;12.70;99.90;;;;;;5058484;28;20058;-85
2023/10/20 12:16:17;;;;;;;22.45;3.00;;;12.70;99.90;;;;;;5075005;28;20059;-84
2023/10/20 12:18:43;;;;;;;21.58;3.15;;;12.60;99.90;;;;;;5055917;28;20113;-81
2023/10/20 12:21:08;;;;;;;18.13;2.83;;;12.70;99.90;;;;;;5074412;28;20071;-79
2023/10/20 12:23:34;;;;;;;21.48;2.67;;;12.60;99.90;;;;;;5073254;28;20392;-81
2023/10/20 12:26:00;;;;;;;19.88;3.10;;;12.40;99.90;;;;;;5074544;28;20021;-81
2023/10/20 12:28:26;;;;;;;13.48;2.45;;;12.40;99.90;;;;;;5084069;28;20033;-81
2023/10/20 12:30:52;;;;;;;26.20;3.70;;;12.50;99.90;;;;;;5072686;28;20025;-82
2023/10/20 12:33:18;;;;;;;22.08;2.75;;;12.50;99.90;;;;;;5072627;28;20055;-80
2023/10/20 12:35:43;;;;;;;20.73;3.65;;;12.40;99.90;;;;;;5089686;28;20028;-79
2023/10/20 12:38:10;;;;;;;22.58;3.67;;;12.50;99.90;;;;;;5078172;28;20113;-80
2023/10/20 12:40:39;;;;;;;22.95;3.15;;;12.40;99.90;;;;;;5073375;28;20025;-79
2023/10/20 12:43:09;;;;;;;25.10;3.22;;;12.50;99.90;;;;;;5074520;28;20043;-84
2023/10/20 12:45:38;;;;;;;27.95;3.55;;;12.40;99.90;;;;;;5056360;28;20031;-86
2023/10/20 12:48:05;;;;;;;22.58;2.75;;;12.40;99.90;;;;;;5074334;28;20043;-82
2023/10/20 12:50:32;;;;;;;28.00;3.78;;;12.20;99.90;;;;;;5055654;28;20036;-86
2023/10/20 12:53:02;;;;;;;23.52;3.65;;;12.40;99.90;;;;;;5056441;28;20032;-85
2023/10/20 12:55:28;;;;;;;28.48;3.05;;;12.30;99.90;;;;;;5073529;28;20067;-82
2023/10/20 12:57:54;;;;;;;27.15;3.50;;;12.30;99.90;;;;;;5056657;28;20028;-90
2023/10/20 13:00:25;;;;;;;21.08;2.72;;;12.30;99.90;;;;;;5057346;28;20032;-88
2023/10/20 13:02:56;;;;;;;18.02;2.38;;;12.20;99.90;;;;;;5061251;28;20021;-88